createdAt,value
2017-04-06T00:00:59.919Z,69.48
2017-04-06T00:02:09.120Z,69.19
2017-04-06T00:03:18.070Z,70.52
2017-04-06T00:04:27.015Z,69.95
2017-04-06T00:05:35.969Z,71
2017-04-06T00:06:44.921Z,70.14
2017-04-06T00:07:54.122Z,69.48
2017-04-06T00:09:03.076Z,69.57
2017-04-06T00:10:12.030Z,69.67
2017-04-06T00:11:20.981Z,69.57
2017-04-06T00:12:29.935Z,69.38
2017-04-06T00:13:39.134Z,69.67
2017-04-06T00:14:48.089Z,70.72
2017-04-06T00:15:57.046Z,71.19
2017-04-06T00:17:06.001Z,70.81
2017-04-06T00:18:14.958Z,69.67
2017-04-06T00:19:24.160Z,69.19
2017-04-06T00:20:33.115Z,69.57
2017-04-06T00:21:42.065Z,70.24
2017-04-06T00:22:51.019Z,70.14
2017-04-06T00:23:59.970Z,70.24
2017-04-06T00:25:09.175Z,70.14
2017-04-06T00:26:18.126Z,70.33
2017-04-06T00:27:27.079Z,70.14
2017-04-06T00:28:36.030Z,70.05
2017-04-06T00:29:44.981Z,69
2017-04-06T00:30:54.186Z,68.62
2017-04-06T00:32:03.135Z,67.51
2017-04-06T00:33:12.084Z,68.9
2017-04-06T00:34:21.037Z,68.33
2017-04-06T00:35:30.313Z,68.9
2017-04-06T00:36:39.518Z,69.19
2017-04-06T00:37:48.466Z,68.9
2017-04-06T00:38:57.416Z,69.19
2017-04-06T00:40:06.368Z,68.81
2017-04-06T00:41:15.319Z,69.29
2017-04-06T00:42:24.524Z,70.33
2017-04-06T00:43:33.474Z,69.1
2017-04-06T00:44:42.427Z,68.52
2017-04-06T00:45:51.380Z,69.48
2017-04-06T00:47:00.334Z,69.85
2017-04-06T00:48:09.537Z,69.48
2017-04-06T00:49:18.489Z,69.95
2017-04-06T00:50:27.436Z,70.24
2017-04-06T00:51:36.391Z,70.05
2017-04-06T00:52:45.340Z,70.24
2017-04-06T00:53:54.543Z,70.52
2017-04-06T00:55:03.491Z,70.72
2017-04-06T00:56:12.441Z,70.33
2017-04-06T00:57:21.395Z,69.29
2017-04-06T00:58:30.342Z,69.85
2017-04-06T00:59:39.541Z,69.57
2017-04-06T01:00:48.493Z,69.76
2017-04-06T01:01:57.447Z,70.62
2017-04-06T01:03:06.404Z,70.9
2017-04-06T01:04:15.362Z,70.43
2017-04-06T01:05:24.566Z,69.38
2017-04-06T01:06:33.520Z,69.67
2017-04-06T01:07:42.482Z,70.33
2017-04-06T01:08:51.438Z,70.43
2017-04-06T01:10:00.390Z,70.33
2017-04-06T01:11:09.598Z,70.43
2017-04-06T01:12:18.550Z,70.14
2017-04-06T01:13:27.502Z,70.05
2017-04-06T01:14:36.453Z,69.85
2017-04-06T01:15:45.437Z,69.67
2017-04-06T01:16:54.641Z,69.67
2017-04-06T01:18:03.595Z,70.33
2017-04-06T01:19:12.549Z,70.05
2017-04-06T01:20:21.503Z,70.05
2017-04-06T01:21:30.453Z,69.48
2017-04-06T01:22:39.707Z,70.33
2017-04-06T01:23:48.659Z,69.67
2017-04-06T01:24:57.609Z,70.14
2017-04-06T01:26:06.562Z,70.24
2017-04-06T01:27:15.515Z,70.24
2017-04-06T01:28:24.714Z,70.14
2017-04-06T01:29:33.678Z,69.67
2017-04-06T01:30:42.952Z,69.29
2017-04-06T01:31:51.904Z,69.19
2017-04-06T01:33:00.865Z,69.57
2017-04-06T01:34:10.066Z,69.48
2017-04-06T01:35:19.344Z,70.05
2017-04-06T01:36:28.304Z,69.95
2017-04-06T01:37:37.256Z,70.14
2017-04-06T01:38:46.210Z,70.14
2017-04-06T01:39:55.411Z,70.43
2017-04-06T01:41:04.367Z,70.14
2017-04-06T01:42:13.325Z,70.24
2017-04-06T01:43:22.275Z,70.14
2017-04-06T01:44:31.229Z,70.33
2017-04-06T01:45:40.436Z,70.3
2017-04-06T01:46:49.392Z,70.9
2017-04-06T01:47:58.433Z,70.52
2017-04-06T01:49:07.383Z,69.95
2017-04-06T01:50:16.424Z,71.06
2017-04-06T01:51:25.661Z,71.25
2017-04-06T01:52:34.620Z,71
2017-04-06T01:53:43.573Z,71.19
2017-04-06T01:54:52.620Z,70.81
2017-04-06T01:56:01.570Z,70.68
2017-04-06T01:57:10.772Z,70.43
2017-04-06T01:58:19.724Z,70.87
2017-04-06T01:59:28.677Z,71.25
2017-04-06T02:00:37.962Z,71.25
2017-04-06T02:01:47.012Z,70.87
2017-04-06T02:02:56.213Z,71.15
2017-04-06T02:04:05.168Z,71.15
2017-04-06T02:05:14.131Z,71.25
2017-04-06T02:06:23.087Z,71.72
2017-04-06T02:07:32.047Z,71.82
2017-04-06T02:08:41.246Z,71.82
2017-04-06T02:09:50.198Z,71.34
2017-04-06T02:10:59.147Z,71.34
2017-04-06T02:12:08.093Z,71.15
2017-04-06T02:13:17.047Z,71.25
2017-04-06T02:14:26.250Z,71.82
2017-04-06T02:15:35.202Z,71.91
2017-04-06T02:16:44.148Z,71.72
2017-04-06T02:17:53.095Z,72.3
2017-04-06T02:19:02.055Z,71.82
2017-04-06T02:20:11.257Z,71.44
2017-04-06T02:21:20.216Z,71.72
2017-04-06T02:22:29.166Z,71.72
2017-04-06T02:23:38.114Z,71.91
2017-04-06T02:24:47.063Z,71.91
2017-04-06T02:25:56.262Z,71.72
2017-04-06T02:27:05.213Z,71.72
2017-04-06T02:28:14.196Z,71.44
2017-04-06T02:29:23.143Z,71.15
2017-04-06T02:30:32.099Z,71.44
2017-04-06T02:31:41.300Z,71.44
2017-04-06T02:32:50.256Z,71.34
2017-04-06T02:33:59.293Z,71.06
2017-04-06T02:35:08.257Z,70.97
2017-04-06T02:36:17.294Z,71.15
2017-04-06T02:37:26.495Z,71.02
2017-04-06T02:38:35.447Z,71.31
2017-04-06T02:39:44.396Z,71.41
2017-04-06T02:40:53.351Z,71.22
2017-04-06T02:42:02.303Z,71.41
2017-04-06T02:43:11.508Z,71.22
2017-04-06T02:44:20.457Z,71.41
2017-04-06T02:45:29.409Z,71.44
2017-04-06T02:46:38.357Z,71.25
2017-04-06T02:47:47.307Z,71.63
2017-04-06T02:48:56.515Z,71.34
2017-04-06T02:50:05.464Z,71.15
2017-04-06T02:51:14.415Z,71.25
2017-04-06T02:52:23.365Z,70.83
2017-04-06T02:53:32.315Z,70.97
2017-04-06T02:54:41.510Z,71.02
2017-04-06T02:55:50.461Z,70.74
2017-04-06T02:56:59.412Z,71.06
2017-04-06T02:58:08.378Z,71.06
2017-04-06T02:59:17.336Z,70.93
2017-04-06T03:00:26.539Z,71.02
2017-04-06T03:01:35.823Z,70.74
2017-04-06T03:02:44.779Z,70.74
2017-04-06T03:03:53.735Z,71.22
2017-04-06T03:05:02.687Z,71.12
2017-04-06T03:06:11.946Z,70.45
2017-04-06T03:07:20.897Z,70.64
2017-04-06T03:08:29.852Z,70.64
2017-04-06T03:09:38.803Z,70.17
2017-04-06T03:10:47.751Z,70.17
2017-04-06T03:11:57.004Z,70.17
2017-04-06T03:13:05.956Z,70.07
2017-04-06T03:14:14.912Z,69.98
2017-04-06T03:15:24.184Z,69.88
2017-04-06T03:16:33.148Z,69.6
2017-04-06T03:17:42.671Z,69.44
2017-04-06T03:18:51.624Z,69.21
2017-04-06T03:20:00.573Z,69.54
2017-04-06T03:21:09.611Z,69.15
2017-04-06T03:22:18.586Z,69.35
2017-04-06T03:23:27.789Z,69.15
2017-04-06T03:24:36.742Z,69.44
2017-04-06T03:25:45.694Z,69.21
2017-04-06T03:26:54.646Z,68.96
2017-04-06T03:28:03.594Z,69.25
2017-04-06T03:29:13.122Z,68.77
2017-04-06T03:30:22.069Z,68.96
2017-04-06T03:31:31.021Z,68.87
2017-04-06T03:32:40.304Z,69.25
2017-04-06T03:33:49.342Z,68.93
2017-04-06T03:34:58.546Z,68.65
2017-04-06T03:36:07.496Z,68.96
2017-04-06T03:37:16.446Z,68.87
2017-04-06T03:38:25.398Z,68.93
2017-04-06T03:39:34.344Z,69.5
2017-04-06T03:40:43.558Z,69.12
2017-04-06T03:41:52.510Z,69.12
2017-04-06T03:43:01.465Z,68.65
2017-04-06T03:44:10.423Z,68.87
2017-04-06T03:45:19.376Z,69.12
2017-04-06T03:46:28.592Z,69.41
2017-04-06T03:47:37.573Z,69.5
2017-04-06T03:48:46.524Z,68.93
2017-04-06T03:49:55.562Z,69.06
2017-04-06T03:51:04.513Z,68.93
2017-04-06T03:52:13.716Z,68.65
2017-04-06T03:53:22.668Z,68.93
2017-04-06T03:54:31.616Z,68.96
2017-04-06T03:55:40.568Z,68.4
2017-04-06T03:56:49.520Z,68.49
2017-04-06T03:57:58.770Z,68.96
2017-04-06T03:59:07.726Z,68.49
2017-04-06T04:00:16.681Z,68.4
2017-04-06T04:01:25.629Z,68.59
2017-04-06T04:02:34.579Z,68.59
2017-04-06T04:03:43.775Z,68.3
2017-04-06T04:04:52.725Z,68.01
2017-04-06T04:06:01.689Z,68.11
2017-04-06T04:07:10.647Z,68.01
2017-04-06T04:08:19.597Z,67.82
2017-04-06T04:09:28.792Z,67.63
2017-04-06T04:10:37.742Z,67.16
2017-04-06T04:11:46.691Z,67.25
2017-04-06T04:12:55.647Z,67.16
2017-04-06T04:14:04.600Z,67.44
2017-04-06T04:15:13.806Z,67.25
2017-04-06T04:16:22.791Z,67.25
2017-04-06T04:17:31.745Z,66.97
2017-04-06T04:18:40.695Z,67.35
2017-04-06T04:19:49.645Z,67.73
2017-04-06T04:20:58.921Z,67.35
2017-04-06T04:22:07.877Z,66.97
2017-04-06T04:23:16.826Z,67.63
2017-04-06T04:24:25.776Z,67.44
2017-04-06T04:25:34.746Z,66.97
2017-04-06T04:26:43.948Z,66.2
2017-04-06T04:27:52.907Z,66.39
2017-04-06T04:29:01.863Z,66.39
2017-04-06T04:30:10.814Z,65.92
2017-04-06T04:31:19.765Z,66.78
2017-04-06T04:32:28.970Z,66.49
2017-04-06T04:33:37.926Z,66.68
2017-04-06T04:34:46.885Z,66.02
2017-04-06T04:35:55.927Z,65.73
2017-04-06T04:37:04.882Z,65.54
2017-04-06T04:38:14.141Z,65.06
2017-04-06T04:39:23.095Z,65.25
2017-04-06T04:40:32.050Z,65.73
2017-04-06T04:41:41.007Z,65.73
2017-04-06T04:42:49.968Z,65.45
2017-04-06T04:43:59.194Z,65.83
2017-04-06T04:45:08.149Z,65.64
2017-04-06T04:46:17.106Z,65.54
2017-04-06T04:47:26.066Z,65.64
2017-04-06T04:48:35.025Z,65.89
2017-04-06T04:49:44.547Z,66.2
2017-04-06T04:50:53.501Z,66.46
2017-04-06T04:52:02.538Z,66.94
2017-04-06T04:53:11.487Z,67.69
2017-04-06T04:54:20.542Z,68.21
2017-04-06T04:55:29.791Z,67.69
2017-04-06T04:56:38.739Z,67.32
2017-04-06T04:57:47.694Z,67.69
2017-04-06T04:58:56.641Z,67.22
2017-04-06T05:00:05.587Z,67.69
2017-04-06T05:01:14.795Z,67.22
2017-04-06T05:02:23.751Z,67.69
2017-04-06T05:03:32.707Z,67.92
2017-04-06T05:04:41.746Z,67.73
2017-04-06T05:05:50.706Z,67.54
2017-04-06T05:06:59.911Z,67.82
2017-04-06T05:08:08.869Z,68.11
2017-04-06T05:09:17.823Z,67.5
2017-04-06T05:10:26.771Z,67.41
2017-04-06T05:11:35.721Z,67.98
2017-04-06T05:12:45.011Z,68.3
2017-04-06T05:13:53.995Z,67.98
2017-04-06T05:15:03.075Z,68.46
2017-04-06T05:16:12.120Z,67.88
2017-04-06T05:17:21.091Z,68.65
2017-04-06T05:18:30.295Z,68.46
2017-04-06T05:19:39.243Z,68.46
2017-04-06T05:20:48.195Z,68.55
2017-04-06T05:21:57.145Z,68.36
2017-04-06T05:23:06.099Z,68.36
2017-04-06T05:24:15.621Z,68.46
2017-04-06T05:25:24.569Z,68.17
2017-04-06T05:26:33.531Z,68.17
2017-04-06T05:27:42.497Z,67.98
2017-04-06T05:28:51.539Z,68.17
2017-04-06T05:30:00.738Z,68.07
2017-04-06T05:31:09.687Z,68.36
2017-04-06T05:32:18.639Z,68.36
2017-04-06T05:33:27.593Z,68.36
2017-04-06T05:34:36.543Z,68.46
2017-04-06T05:35:45.748Z,68.36
2017-04-06T05:36:54.697Z,68.84
2017-04-06T05:38:03.652Z,68.65
2017-04-06T05:39:12.686Z,68.27
2017-04-06T05:40:21.699Z,68.65
2017-04-06T05:41:31.099Z,68.93
2017-04-06T05:42:41.131Z,68.93
2017-04-06T05:43:50.078Z,68.84
2017-04-06T05:44:59.034Z,69.02
2017-04-06T05:46:07.989Z,68.74
2017-04-06T05:47:17.189Z,68.27
2017-04-06T05:48:26.142Z,68.55
2017-04-06T05:49:35.632Z,68.93
2017-04-06T05:50:45.229Z,68.93
2017-04-06T05:51:54.182Z,68.74
2017-04-06T05:53:03.398Z,68.65
2017-04-06T05:54:12.353Z,69.02
2017-04-06T05:55:21.309Z,69.02
2017-04-06T05:56:30.266Z,69.12
2017-04-06T05:57:39.215Z,68.84
2017-04-06T05:58:48.418Z,68.84
2017-04-06T05:59:57.368Z,68.46
2017-04-06T06:01:06.320Z,68.36
2017-04-06T06:02:15.382Z,68.36
2017-04-06T06:03:24.334Z,68.36
2017-04-06T06:04:33.538Z,68.55
2017-04-06T06:05:42.576Z,68.36
2017-04-06T06:06:51.526Z,68.27
2017-04-06T06:08:00.482Z,68.07
2017-04-06T06:09:09.667Z,68.27
2017-04-06T06:10:19.201Z,68.36
2017-04-06T06:11:28.151Z,69.02
2017-04-06T06:12:37.105Z,69.02
2017-04-06T06:13:46.058Z,68.93
2017-04-06T06:14:55.113Z,68.93
2017-04-06T06:16:04.349Z,68.55
2017-04-06T06:17:13.330Z,68.65
2017-04-06T06:18:22.288Z,68.55
2017-04-06T06:19:31.562Z,68.46
2017-04-06T06:20:40.513Z,68.07
2017-04-06T06:21:50.385Z,68.07
2017-04-06T06:22:59.341Z,67.79
2017-04-06T06:24:08.320Z,67.69
2017-04-06T06:25:17.273Z,68.36
2017-04-06T06:26:26.230Z,68.07
2017-04-06T06:27:35.527Z,68.17
2017-04-06T06:28:44.480Z,68.55
2017-04-06T06:29:53.515Z,68.07
2017-04-06T06:31:02.481Z,68.11
2017-04-06T06:32:11.438Z,67.6
2017-04-06T06:33:20.723Z,67.5
2017-04-06T06:34:29.684Z,67.41
2017-04-06T06:35:38.734Z,67.41
2017-04-06T06:36:47.687Z,67.35
2017-04-06T06:37:56.641Z,67.44
2017-04-06T06:39:05.926Z,67.44
2017-04-06T06:40:14.878Z,66.97
2017-04-06T06:41:23.829Z,66.59
2017-04-06T06:42:32.785Z,66.59
2017-04-06T06:43:41.742Z,66.59
2017-04-06T06:44:51.356Z,66.59
2017-04-06T06:46:00.309Z,66.39
2017-04-06T06:47:09.260Z,66.39
2017-04-06T06:48:18.214Z,66.2
2017-04-06T06:49:27.187Z,66.68
2017-04-06T06:50:36.393Z,66.68
2017-04-06T06:51:45.353Z,66.78
2017-04-06T06:52:54.359Z,66.39
2017-04-06T06:54:03.329Z,66.68
2017-04-06T06:55:12.301Z,66.59
2017-04-06T06:56:21.529Z,66.78
2017-04-06T06:57:30.504Z,66.49
2017-04-06T06:58:39.479Z,66.11
2017-04-06T06:59:48.466Z,66.49
2017-04-06T07:00:57.531Z,66.97
2017-04-06T07:02:06.755Z,66.3
2017-04-06T07:03:15.729Z,66.39
2017-04-06T07:04:24.701Z,65.73
2017-04-06T07:05:33.677Z,66.02
2017-04-06T07:06:42.677Z,65.45
2017-04-06T07:07:51.909Z,65.25
2017-04-06T07:09:00.907Z,64.4
2017-04-06T07:10:09.965Z,65.06
2017-04-06T07:11:18.941Z,65.29
2017-04-06T07:12:27.917Z,64.9
2017-04-06T07:13:37.147Z,64.31
2017-04-06T07:14:46.118Z,64.59
2017-04-06T07:15:55.093Z,65.19
2017-04-06T07:17:04.070Z,64.78
2017-04-06T07:18:13.047Z,64.72
2017-04-06T07:19:22.275Z,64.62
2017-04-06T07:20:31.251Z,64.34
2017-04-06T07:21:40.350Z,64.05
2017-04-06T07:22:49.417Z,63.76
2017-04-06T07:23:58.561Z,63.29
2017-04-06T07:25:07.794Z,63.2
2017-04-06T07:26:16.773Z,63.48
2017-04-06T07:27:25.745Z,63.2
2017-04-06T07:28:34.724Z,62.72
2017-04-06T07:29:43.793Z,62.53
2017-04-06T07:30:53.022Z,62.62
2017-04-06T07:32:01.995Z,63.39
2017-04-06T07:33:10.972Z,62.53
2017-04-06T07:34:20.030Z,62.43
2017-04-06T07:35:29.000Z,62.37
2017-04-06T07:36:38.230Z,62.53
2017-04-06T07:37:47.203Z,62.53
2017-04-06T07:38:56.175Z,62.43
2017-04-06T07:40:05.150Z,61.8
2017-04-06T07:41:14.128Z,62.08
2017-04-06T07:42:23.350Z,61.99
2017-04-06T07:43:32.415Z,61.13
2017-04-06T07:44:41.387Z,61.13
2017-04-06T07:45:50.360Z,60.46
2017-04-06T07:46:59.337Z,60.56
2017-04-06T07:48:08.566Z,60.46
2017-04-06T07:49:17.542Z,60.37
2017-04-06T07:50:26.523Z,60.46
2017-04-06T07:51:35.840Z,61.04
2017-04-06T07:52:44.812Z,61.32
2017-04-06T07:53:54.041Z,60.94
2017-04-06T07:55:03.016Z,60.85
2017-04-06T07:56:12.168Z,60.66
2017-04-06T07:57:21.155Z,60.94
2017-04-06T07:58:30.158Z,60.75
2017-04-06T07:59:39.555Z,60.3
2017-04-06T08:00:48.535Z,59.51
2017-04-06T08:01:57.610Z,59.83
2017-04-06T08:03:06.591Z,59.8
2017-04-06T08:04:15.567Z,59.32
2017-04-06T08:05:24.787Z,59.13
2017-04-06T08:06:33.776Z,59.03
2017-04-06T08:07:42.756Z,59.03
2017-04-06T08:08:51.747Z,59.03
2017-04-06T08:10:00.722Z,59.16
2017-04-06T08:11:09.961Z,58.59
2017-04-06T08:12:19.071Z,58.21
2017-04-06T08:13:28.131Z,58.3
2017-04-06T08:14:37.111Z,58.5
2017-04-06T08:15:46.087Z,58.21
2017-04-06T08:16:55.301Z,58.5
2017-04-06T08:18:04.329Z,58.59
2017-04-06T08:19:13.374Z,58.78
2017-04-06T08:20:22.407Z,58.4
2017-04-06T08:21:31.486Z,58.87
2017-04-06T08:22:40.694Z,58.69
2017-04-06T08:23:49.642Z,58.3
2017-04-06T08:24:58.766Z,57.45
2017-04-06T08:26:07.722Z,57.35
2017-04-06T08:27:16.675Z,57.35
2017-04-06T08:28:25.914Z,57.57
2017-04-06T08:29:34.866Z,56.62
2017-04-06T08:30:43.821Z,55.95
2017-04-06T08:31:52.877Z,55.95
2017-04-06T08:33:01.987Z,55.76
2017-04-06T08:34:11.347Z,55.57
2017-04-06T08:35:20.697Z,55.38
2017-04-06T08:36:30.009Z,55.47
2017-04-06T08:37:39.136Z,55.47
2017-04-06T08:38:48.219Z,55.66
2017-04-06T08:39:57.601Z,55.66
2017-04-06T08:41:06.729Z,56.24
2017-04-06T08:42:16.019Z,55.38
2017-04-06T08:43:25.062Z,54.9
2017-04-06T08:44:34.293Z,53.85
2017-04-06T08:45:43.991Z,54.33
2017-04-06T08:46:53.091Z,54.52
2017-04-06T08:48:02.547Z,55.09
2017-04-06T08:49:11.890Z,54.04
2017-04-06T08:50:21.070Z,53.76
2017-04-06T08:51:30.316Z,53.56
2017-04-06T08:52:39.299Z,52.83
2017-04-06T08:53:48.634Z,53.12
2017-04-06T08:54:57.703Z,53.09
2017-04-06T08:56:06.668Z,52.45
2017-04-06T08:57:15.923Z,52.52
2017-04-06T08:58:24.881Z,53.21
2017-04-06T08:59:33.834Z,54.17
2017-04-06T09:00:42.791Z,53.59
2017-04-06T09:01:51.870Z,52.73
2017-04-06T09:03:01.494Z,51.31
2017-04-06T09:04:10.610Z,50.83
2017-04-06T09:05:19.838Z,51.12
2017-04-06T09:06:29.155Z,51.5
2017-04-06T09:07:38.151Z,51.21
2017-04-06T09:08:47.873Z,51.31
2017-04-06T09:09:57.042Z,51.31
2017-04-06T09:11:06.003Z,52.16
2017-04-06T09:12:14.958Z,51.4
2017-04-06T09:13:23.972Z,51.12
2017-04-06T09:14:33.199Z,51.21
2017-04-06T09:15:42.570Z,50.92
2017-04-06T09:16:51.540Z,50.73
2017-04-06T09:18:00.816Z,50.45
2017-04-06T09:19:09.769Z,50.07
2017-04-06T09:20:18.973Z,49.68
2017-04-06T09:21:27.929Z,49.59
2017-04-06T09:22:36.881Z,49.78
2017-04-06T09:23:45.830Z,49.68
2017-04-06T09:24:54.953Z,49.99
2017-04-06T09:26:04.247Z,50.09
2017-04-06T09:27:13.527Z,49.9
2017-04-06T09:28:22.480Z,49.62
2017-04-06T09:29:31.434Z,48.57
2017-04-06T09:30:40.396Z,48.94
2017-04-06T09:31:49.652Z,49.59
2017-04-06T09:32:58.603Z,49.02
2017-04-06T09:34:07.564Z,49.11
2017-04-06T09:35:16.603Z,49.62
2017-04-06T09:36:25.558Z,49.13
2017-04-06T09:37:34.761Z,49.23
2017-04-06T09:38:43.804Z,49.04
2017-04-06T09:39:52.763Z,49.04
2017-04-06T09:41:01.712Z,49.99
2017-04-06T09:42:10.669Z,50.76
2017-04-06T09:43:19.899Z,50.57
2017-04-06T09:44:28.855Z,50.95
2017-04-06T09:45:38.147Z,50.09
2017-04-06T09:46:47.100Z,49.8
2017-04-06T09:47:56.057Z,48.94
2017-04-06T09:49:05.261Z,48.39
2017-04-06T09:50:14.212Z,48.11
2017-04-06T09:51:23.171Z,48.39
2017-04-06T09:52:32.127Z,48.02
2017-04-06T09:53:41.081Z,47.54
2017-04-06T09:54:50.333Z,47.82
2017-04-06T09:55:59.460Z,47.63
2017-04-06T09:57:08.417Z,46.8
2017-04-06T09:58:17.371Z,46.48
2017-04-06T09:59:26.412Z,46.32
2017-04-06T10:00:35.709Z,46.03
2017-04-06T10:01:44.984Z,46.68
2017-04-06T10:02:53.942Z,46.48
2017-04-06T10:04:02.946Z,46.01
2017-04-06T10:05:11.910Z,45.15
2017-04-06T10:06:21.115Z,44.89
2017-04-06T10:07:30.069Z,45.27
2017-04-06T10:08:39.027Z,46.22
2017-04-06T10:09:47.983Z,46.51
2017-04-06T10:10:56.950Z,45.27
2017-04-06T10:12:06.333Z,45.46
2017-04-06T10:13:15.358Z,45.17
2017-04-06T10:14:24.320Z,44.89
2017-04-06T10:15:33.274Z,44.79
2017-04-06T10:16:42.256Z,44.31
2017-04-06T10:17:51.504Z,44.22
2017-04-06T10:19:00.510Z,43.86
2017-04-06T10:20:09.488Z,44.02
2017-04-06T10:21:18.802Z,44.12
2017-04-06T10:22:27.759Z,44.41
2017-04-06T10:23:36.963Z,45.08
2017-04-06T10:24:45.921Z,44.98
2017-04-06T10:25:54.875Z,44.7
2017-04-06T10:27:03.830Z,44.7
2017-04-06T10:28:12.789Z,44.6
2017-04-06T10:29:22.000Z,44.12
2017-04-06T10:30:30.960Z,44.24
2017-04-06T10:31:39.916Z,44.05
2017-04-06T10:32:48.872Z,44.43
2017-04-06T10:33:57.917Z,44.81
2017-04-06T10:35:07.217Z,44.15
2017-04-06T10:36:16.172Z,43.95
2017-04-06T10:37:25.130Z,43.95
2017-04-06T10:38:34.081Z,42.9
2017-04-06T10:39:43.040Z,42.52
2017-04-06T10:40:52.424Z,41.85
2017-04-06T10:42:01.413Z,41.66
2017-04-06T10:43:10.370Z,41.38
2017-04-06T10:44:19.324Z,41.38
2017-04-06T10:45:28.372Z,41.85
2017-04-06T10:46:37.671Z,42.43
2017-04-06T10:47:46.701Z,42.43
2017-04-06T10:48:55.746Z,42.61
2017-04-06T10:50:04.702Z,43.02
2017-04-06T10:51:13.659Z,42.44
2017-04-06T10:52:22.951Z,41.68
2017-04-06T10:53:31.909Z,42.25
2017-04-06T10:54:41.550Z,41.87
2017-04-06T10:55:50.501Z,42.25
2017-04-06T10:56:59.458Z,41.56
2017-04-06T10:58:08.712Z,40.99
2017-04-06T10:59:17.667Z,40.7
2017-04-06T11:00:26.627Z,41.47
2017-04-06T11:01:35.585Z,42.33
2017-04-06T11:02:44.630Z,41.85
2017-04-06T11:03:53.885Z,41.47
2017-04-06T11:05:02.850Z,41.85
2017-04-06T11:06:11.808Z,40.53
2017-04-06T11:07:20.763Z,39.94
2017-04-06T11:08:29.722Z,40.03
2017-04-06T11:09:39.013Z,40.13
2017-04-06T11:10:47.966Z,40.42
2017-04-06T11:11:56.927Z,41.47
2017-04-06T11:13:05.884Z,41.56
2017-04-06T11:14:14.933Z,41.85
2017-04-06T11:15:24.145Z,41.47
2017-04-06T11:16:33.187Z,40.99
2017-04-06T11:17:42.144Z,40.32
2017-04-06T11:18:51.099Z,40.23
2017-04-06T11:20:00.053Z,39.27
2017-04-06T11:21:09.261Z,38.51
2017-04-06T11:22:18.219Z,38.51
2017-04-06T11:23:27.265Z,38.22
2017-04-06T11:24:36.397Z,38.53
2017-04-06T11:25:45.440Z,38.62
2017-04-06T11:26:54.695Z,38.53
2017-04-06T11:28:03.654Z,39.39
2017-04-06T11:29:12.609Z,39
2017-04-06T11:30:21.561Z,38.34
2017-04-06T11:31:30.513Z,38.14
2017-04-06T11:32:39.770Z,38.34
2017-04-06T11:33:48.721Z,37.09
2017-04-06T11:34:57.679Z,36.61
2017-04-06T11:36:06.637Z,36.33
2017-04-06T11:37:15.596Z,36.43
2017-04-06T11:38:24.805Z,36.71
2017-04-06T11:39:33.762Z,36.71
2017-04-06T11:40:42.718Z,37.09
2017-04-06T11:41:51.764Z,36.8
2017-04-06T11:43:00.721Z,35.85
2017-04-06T11:44:10.019Z,36.04
2017-04-06T11:45:18.978Z,35.47
2017-04-06T11:46:27.938Z,35.08
2017-04-06T11:47:36.897Z,34.8
2017-04-06T11:48:45.859Z,34.99
2017-04-06T11:49:55.199Z,35.28
2017-04-06T11:51:04.242Z,35.94
2017-04-06T11:52:13.373Z,35.28
2017-04-06T11:53:22.334Z,34.51
2017-04-06T11:54:31.293Z,34.61
2017-04-06T11:55:40.827Z,34.51
2017-04-06T11:56:49.797Z,34.91
2017-04-06T11:57:58.751Z,34.05
2017-04-06T11:59:07.792Z,33.57
2017-04-06T12:00:16.759Z,33.86
2017-04-06T12:01:25.974Z,33.95
2017-04-06T12:02:34.932Z,33.38
2017-04-06T12:03:43.889Z,34.72
2017-04-06T12:04:52.858Z,35
2017-04-06T12:06:01.810Z,35.29
2017-04-06T12:07:11.019Z,34.72
2017-04-06T12:08:20.058Z,33.76
2017-04-06T12:09:29.016Z,33.09
2017-04-06T12:10:38.303Z,33.57
2017-04-06T12:11:47.264Z,34.14
2017-04-06T12:12:56.478Z,34.53
2017-04-06T12:14:05.438Z,33.94
2017-04-06T12:15:14.398Z,34.43
2017-04-06T12:16:23.350Z,34.89
2017-04-06T12:17:32.300Z,34.7
2017-04-06T12:18:41.556Z,34.8
2017-04-06T12:19:50.514Z,34.7
2017-04-06T12:20:59.559Z,34.7
2017-04-06T12:22:08.517Z,34.43
2017-04-06T12:23:17.475Z,33.65
2017-04-06T12:24:26.682Z,33.48
2017-04-06T12:25:35.723Z,33.38
2017-04-06T12:26:44.855Z,32.52
2017-04-06T12:27:54.201Z,32.81
2017-04-06T12:29:05.111Z,32.52
2017-04-06T12:30:14.400Z,32.62
2017-04-06T12:31:23.364Z,33.67
2017-04-06T12:32:32.324Z,32.9
2017-04-06T12:33:41.286Z,32.81
2017-04-06T12:34:50.238Z,33.48
2017-04-06T12:35:59.452Z,33.38
2017-04-06T12:37:08.418Z,32.54
2017-04-06T12:38:17.474Z,31.01
2017-04-06T12:39:26.427Z,30.91
2017-04-06T12:40:35.384Z,30.91
2017-04-06T12:41:44.589Z,30.52
2017-04-06T12:42:53.632Z,30.72
2017-04-06T12:44:02.590Z,31.67
2017-04-06T12:45:11.550Z,31.69
2017-04-06T12:46:21.181Z,31.48
2017-04-06T12:47:30.393Z,31.3
2017-04-06T12:48:39.344Z,31.87
2017-04-06T12:49:48.295Z,31.77
2017-04-06T12:50:57.254Z,31.59
2017-04-06T12:52:06.216Z,31.77
2017-04-06T12:53:15.512Z,31.58
2017-04-06T12:54:24.940Z,31.01
2017-04-06T12:55:34.905Z,30.91
2017-04-06T12:56:44.284Z,31.67
2017-04-06T12:57:53.238Z,31.58
2017-04-06T12:59:02.674Z,30.52
2017-04-06T13:00:12.148Z,30.43
2017-04-06T13:01:21.104Z,30.22
2017-04-06T13:02:30.071Z,31.27
2017-04-06T13:03:39.038Z,31.66
2017-04-06T13:04:48.525Z,31.95
2017-04-06T13:05:57.481Z,31.95
2017-04-06T13:07:06.437Z,32.04
2017-04-06T13:08:15.515Z,31.47
2017-04-06T13:09:24.478Z,30.8
2017-04-06T13:10:33.689Z,30.61
2017-04-06T13:11:42.650Z,30.99
2017-04-06T13:12:51.612Z,31.18
2017-04-06T13:14:03.019Z,31.47
2017-04-06T13:15:11.974Z,32.14
2017-04-06T13:16:21.523Z,32.62
2017-04-06T13:17:30.483Z,32.33
2017-04-06T13:18:39.769Z,32.14
2017-04-06T13:19:48.827Z,31.66
2017-04-06T13:20:57.877Z,31.58
2017-04-06T13:22:07.087Z,31.38
2017-04-06T13:23:16.046Z,30.91
2017-04-06T13:24:25.000Z,31.2
2017-04-06T13:25:33.960Z,31.48
2017-04-06T13:26:42.929Z,31.67
2017-04-06T13:27:52.146Z,31.3
2017-04-06T13:29:01.191Z,30.54
2017-04-06T13:30:10.235Z,30.83
2017-04-06T13:31:19.194Z,30.64
2017-04-06T13:32:28.176Z,30.35
2017-04-06T13:33:37.473Z,30.06
2017-04-06T13:34:46.440Z,29.97
2017-04-06T13:35:55.721Z,29.58
2017-04-06T13:37:04.700Z,29.01
2017-04-06T13:38:13.664Z,29.31
2017-04-06T13:39:22.939Z,29.97
2017-04-06T13:40:31.901Z,28.74
2017-04-06T13:41:40.939Z,28.72
2017-04-06T13:42:49.907Z,28.16
2017-04-06T13:43:58.865Z,28.63
2017-04-06T13:45:08.079Z,28.72
2017-04-06T13:46:17.041Z,28.91
2017-04-06T13:47:25.998Z,29.3
2017-04-06T13:48:35.039Z,29.68
2017-04-06T13:49:43.994Z,30.06
2017-04-06T13:50:53.289Z,30.06
2017-04-06T13:52:02.334Z,29.77
2017-04-06T13:53:11.300Z,29.3
2017-04-06T13:54:20.285Z,28.91
2017-04-06T13:55:29.265Z,29.39
2017-04-06T13:56:38.499Z,29.77
2017-04-06T13:57:47.479Z,29.87
2017-04-06T13:58:56.459Z,29.68
2017-04-06T14:00:05.441Z,29.77
2017-04-06T14:01:14.420Z,29.68
2017-04-06T14:02:23.653Z,28.81
2017-04-06T14:03:32.637Z,29.68
2017-04-06T14:04:41.615Z,29.01
2017-04-06T14:05:50.592Z,28.63
2017-04-06T14:06:59.661Z,29.01
2017-04-06T14:08:08.890Z,29.87
2017-04-06T14:09:17.874Z,30.93
2017-04-06T14:10:26.857Z,30.73
2017-04-06T14:11:35.838Z,30.35
2017-04-06T14:12:44.824Z,30.93
2017-04-06T14:13:54.058Z,30.83
2017-04-06T14:15:03.042Z,30.73
2017-04-06T14:16:12.030Z,30.26
2017-04-06T14:17:21.020Z,29.68
2017-04-06T14:18:30.006Z,29.68
2017-04-06T14:19:39.292Z,29.68
2017-04-06T14:20:48.279Z,29.68
2017-04-06T14:21:57.268Z,30.27
2017-04-06T14:23:06.247Z,29.77
2017-04-06T14:24:15.225Z,29.97
2017-04-06T14:25:24.518Z,29.68
2017-04-06T14:26:33.591Z,28.91
2017-04-06T14:27:42.587Z,28.63
2017-04-06T14:28:51.574Z,30.16
2017-04-06T14:30:00.566Z,29.97
2017-04-06T14:31:09.845Z,30.44
2017-04-06T14:32:18.800Z,30.73
2017-04-06T14:33:27.758Z,30.73
2017-04-06T14:34:36.720Z,30.73
2017-04-06T14:35:45.682Z,31.12
2017-04-06T14:36:55.510Z,30.93
2017-04-06T14:38:04.574Z,30.64
2017-04-06T14:39:13.620Z,30.54
2017-04-06T14:40:22.696Z,30.73
2017-04-06T14:41:31.678Z,30.93
2017-04-06T14:42:40.882Z,30.83
2017-04-06T14:43:49.839Z,30.35
2017-04-06T14:44:58.824Z,30.44
2017-04-06T14:46:07.781Z,30.91
2017-04-06T14:47:16.739Z,32.06
2017-04-06T14:48:25.997Z,31.96
2017-04-06T14:49:34.958Z,34.26
2017-04-06T14:50:43.918Z,32.92
2017-04-06T14:51:52.901Z,33.11
2017-04-06T14:53:01.860Z,33.59